createdAt,value
2024-01-11T00:02:03.646Z,99858.16
2024-01-11T00:04:37.076Z,99856.16
2024-01-11T00:07:10.737Z,99854.83
2024-01-11T00:09:46.371Z,99852.79
2024-01-11T00:12:19.868Z,99854.88
2024-01-11T00:14:53.231Z,99852.71
2024-01-11T00:17:26.808Z,99856.41
2024-01-11T00:20:00.299Z,99853.47
2024-01-11T00:22:34.126Z,99841.05
2024-01-11T00:25:09.493Z,99834.08
2024-01-11T00:27:43.108Z,99836.06
2024-01-11T00:30:17.063Z,99823.69
2024-01-11T00:32:50.589Z,99814.14
2024-01-11T00:35:24.089Z,99816.66
2024-01-11T00:37:57.512Z,99819.17
2024-01-11T00:40:31.033Z,99813.04
2024-01-11T00:43:04.513Z,99808.50
2024-01-11T00:45:37.874Z,99808.92
2024-01-11T00:48:11.631Z,99805.38
2024-01-11T00:50:45.113Z,99799.59
2024-01-11T00:53:18.875Z,99802.13
2024-01-11T00:55:53.085Z,99803.09
2024-01-11T00:58:26.554Z,99804.55
2024-01-11T01:01:00.007Z,99800.37
2024-01-11T01:03:33.586Z,99799.98
2024-01-11T01:06:07.677Z,99800.35
2024-01-11T01:08:41.248Z,99802.44
2024-01-11T01:11:14.911Z,99805.71
2024-01-11T01:13:48.513Z,99809.23
2024-01-11T01:16:21.933Z,99811.41
2024-01-11T01:18:55.441Z,99809.79
2024-01-11T01:21:29.218Z,99810.83
2024-01-11T01:24:02.816Z,99805.73
2024-01-11T01:26:36.234Z,99808.23
2024-01-11T01:29:09.807Z,99801.52
2024-01-11T01:31:43.148Z,99792.19
2024-01-11T01:34:16.771Z,99787.33
2024-01-11T01:36:50.182Z,99782.38
2024-01-11T01:39:23.603Z,99791.23
2024-01-11T01:41:57.032Z,99792.16
2024-01-11T01:44:30.743Z,99786.23
2024-01-11T01:47:04.872Z,99786.91
2024-01-11T01:49:39.639Z,99781.27
2024-01-11T01:52:16.299Z,99780.13
2024-01-11T01:54:51.957Z,99775.76
2024-01-11T01:57:25.410Z,99765.52
2024-01-11T01:59:59.038Z,99763.59
2024-01-11T02:02:33.701Z,99766.98
2024-01-11T02:05:08.595Z,99764.17
2024-01-11T02:07:42.127Z,99763.60
2024-01-11T02:10:15.785Z,99762.18
2024-01-11T02:12:49.154Z,99766.58
2024-01-11T02:15:22.875Z,99763.46
2024-01-11T02:17:56.382Z,99765.17
2024-01-11T02:20:29.890Z,99757.70
2024-01-11T02:23:07.738Z,99753.20
2024-01-11T02:25:41.128Z,99752.70
2024-01-11T02:28:14.473Z,99755.01
2024-01-11T02:30:47.933Z,99759.52
2024-01-11T02:33:21.719Z,99754.97
2024-01-11T02:35:55.457Z,99752.58
2024-01-11T02:38:28.923Z,99752.29
2024-01-11T02:41:02.793Z,99756.88
2024-01-11T02:43:37.057Z,99752.25
2024-01-11T02:46:10.313Z,99753.46
2024-01-11T02:48:43.704Z,99755.98
2024-01-11T02:51:17.162Z,99757.58
2024-01-11T02:53:50.464Z,99752.69
2024-01-11T02:56:24.853Z,99747.52
2024-01-11T02:58:58.219Z,99743.27
2024-01-11T03:01:31.587Z,99743.89
2024-01-11T03:04:05.102Z,99735.69
2024-01-11T03:06:38.691Z,99728.81
2024-01-11T03:09:12.357Z,99724.80
2024-01-11T03:11:45.691Z,99732.97
2024-01-11T03:14:19.162Z,99732.86
2024-01-11T03:16:52.811Z,99720.59
2024-01-11T03:19:26.181Z,99711.02
2024-01-11T03:21:59.752Z,99715.91
2024-01-11T03:24:33.173Z,99721.33
2024-01-11T03:27:06.923Z,99717.48
2024-01-11T03:29:40.307Z,99717.32
2024-01-11T03:32:14.107Z,99714.68
2024-01-11T03:34:47.438Z,99713.34
2024-01-11T03:37:20.766Z,99711.49
2024-01-11T03:39:54.046Z,99712.53
2024-01-11T03:42:27.404Z,99710.31
2024-01-11T03:45:00.745Z,99707.89
2024-01-11T03:47:34.237Z,99709.89
2024-01-11T03:50:08.955Z,99699.44
2024-01-11T03:52:42.663Z,99692.88
2024-01-11T03:55:16.205Z,99709.66
2024-01-11T03:57:49.542Z,99706.83
2024-01-11T04:00:23.307Z,99703.13
2024-01-11T04:02:56.638Z,99700.92
2024-01-11T04:05:30.173Z,99698.60
2024-01-11T04:08:05.159Z,99693.60
2024-01-11T04:10:38.732Z,99689.38
2024-01-11T04:13:13.822Z,99694.41
2024-01-11T04:15:47.685Z,99699.53
2024-01-11T04:18:21.320Z,99694.59
2024-01-11T04:20:55.042Z,99690.50
2024-01-11T04:23:28.452Z,99693.88
2024-01-11T04:26:01.910Z,99697.73
2024-01-11T04:28:35.430Z,99698.70
2024-01-11T04:31:10.032Z,99695.30
2024-01-11T04:33:46.579Z,99686.17
2024-01-11T04:36:20.046Z,99682.86
2024-01-11T04:38:53.337Z,99685.66
2024-01-11T04:41:26.917Z,99682.70
2024-01-11T04:44:00.339Z,99682.54
2024-01-11T04:46:33.803Z,99695.35
2024-01-11T04:49:07.281Z,99694.29
2024-01-11T04:51:40.740Z,99690.70
2024-01-11T04:54:14.140Z,99687.66
2024-01-11T04:56:47.544Z,99680.96
2024-01-11T04:59:21.049Z,99669.31
2024-01-11T05:01:54.445Z,99667.89
2024-01-11T05:04:27.812Z,99675.44
2024-01-11T05:07:01.288Z,99670.36
2024-01-11T05:09:34.672Z,99660.90
2024-01-11T05:12:09.560Z,99652.17
2024-01-11T05:14:43.057Z,99644.23
2024-01-11T05:17:16.840Z,99642.77
2024-01-11T05:19:50.337Z,99632.85
2024-01-11T05:22:23.720Z,99642.48
2024-01-11T05:24:57.352Z,99645.94
2024-01-11T05:27:30.670Z,99651.63
2024-01-11T05:30:04.260Z,99662.09
2024-01-11T05:32:37.850Z,99665.90
2024-01-11T05:35:12.372Z,99664.33
2024-01-11T05:37:45.864Z,99657.35
2024-01-11T05:40:19.906Z,99654.77
2024-01-11T05:42:53.511Z,99642.38
2024-01-11T05:45:35.785Z,99629.46
2024-01-11T05:48:15.552Z,99627.09
2024-01-11T05:50:48.951Z,99628.09
2024-01-11T05:53:22.660Z,99633.08
2024-01-11T05:55:56.137Z,99631.86
2024-01-11T05:58:29.493Z,99634.95
2024-01-11T06:01:03.091Z,99637.14
2024-01-11T06:03:36.544Z,99641.17
2024-01-11T06:06:10.610Z,99644.48
2024-01-11T06:08:44.967Z,99642.03
2024-01-11T06:11:19.541Z,99638.16
2024-01-11T06:13:53.016Z,99638.59
2024-01-11T06:16:26.404Z,99633.40
2024-01-11T06:19:00.061Z,99627.84
2024-01-11T06:21:33.523Z,99622.73
2024-01-11T06:24:07.261Z,99619.79
2024-01-11T06:26:40.821Z,99615.23
2024-01-11T06:29:14.211Z,99623.88
2024-01-11T06:31:47.564Z,99608.61
2024-01-11T06:34:20.962Z,99595.42
2024-01-11T06:36:54.411Z,99582.48
2024-01-11T06:39:27.819Z,99566.57
2024-01-11T06:42:01.292Z,99550.97
2024-01-11T06:44:34.931Z,99540.48
2024-01-11T06:47:08.973Z,99541.23
2024-01-11T06:49:44.661Z,99555.86
2024-01-11T06:52:17.994Z,99561.52
2024-01-11T06:54:51.312Z,99548.57
2024-01-11T06:57:25.892Z,99548.85
2024-01-11T06:59:59.386Z,99546.83
2024-01-11T07:02:33.042Z,99541.46
2024-01-11T07:05:06.843Z,99542.66
2024-01-11T07:07:40.328Z,99538.83
2024-01-11T07:10:14.596Z,99528.51
2024-01-11T07:12:49.161Z,99521.30
2024-01-11T07:15:22.605Z,99516.40
2024-01-11T07:17:56.065Z,99526.96
2024-01-11T07:20:29.459Z,99528.09
2024-01-11T07:23:03.034Z,99521.55
2024-01-11T07:25:36.522Z,99535.64
2024-01-11T07:28:10.389Z,99549.79
2024-01-11T07:30:44.058Z,99558.71
2024-01-11T07:33:17.585Z,99571.61
2024-01-11T07:35:51.744Z,99583.36
2024-01-11T07:38:25.420Z,99576.86
2024-01-11T07:40:58.947Z,99567.16
2024-01-11T07:43:44.999Z,99560.36
2024-01-11T07:46:32.592Z,99542.18
2024-01-11T07:49:11.341Z,99521.02
2024-01-11T07:51:44.741Z,99535.33
2024-01-11T07:54:18.128Z,99529.96
2024-01-11T07:56:51.806Z,99517.88
2024-01-11T07:59:25.268Z,99500.45
2024-01-11T08:01:58.952Z,99492.15
2024-01-11T08:04:32.335Z,99484.60
2024-01-11T08:07:06.713Z,99492.50
2024-01-11T08:09:46.289Z,99486.00
2024-01-11T08:12:19.945Z,99485.16
2024-01-11T08:14:53.451Z,99489.46
2024-01-11T08:17:26.977Z,99486.51
2024-01-11T08:20:00.482Z,99481.83
2024-01-11T08:22:35.629Z,99487.73
2024-01-11T08:25:10.315Z,99476.95
2024-01-11T08:27:43.987Z,99451.67
2024-01-11T08:30:18.364Z,99455.44
2024-01-11T08:32:51.759Z,99460.05
2024-01-11T08:35:25.436Z,99461.56
2024-01-11T08:37:58.961Z,99461.65
2024-01-11T08:40:32.406Z,99462.16
2024-01-11T08:43:07.592Z,99470.76
2024-01-11T08:45:41.190Z,99477.33
2024-01-11T08:48:14.711Z,99476.08
2024-01-11T08:50:48.176Z,99486.45
2024-01-11T08:53:22.691Z,99502.80
2024-01-11T08:55:56.055Z,99506.13
2024-01-11T08:58:29.381Z,99495.59
2024-01-11T09:01:02.760Z,99493.08
2024-01-11T09:03:36.526Z,99498.38
2024-01-11T09:06:10.412Z,99493.63
2024-01-11T09:08:44.006Z,99498.80
2024-01-11T09:11:19.566Z,99491.88
2024-01-11T09:13:52.956Z,99502.35
2024-01-11T09:16:26.260Z,99504.21
2024-01-11T09:19:01.296Z,99501.98
2024-01-11T09:21:34.731Z,99508.41
2024-01-11T09:24:08.545Z,99500.36
2024-01-11T09:26:42.026Z,99489.15
2024-01-11T09:29:15.466Z,99491.86
2024-01-11T09:31:48.815Z,99489.30
2024-01-11T09:34:22.176Z,99488.68
2024-01-11T09:36:59.905Z,99483.75
2024-01-11T09:39:33.800Z,99483.21
2024-01-11T09:42:12.206Z,99473.86
2024-01-11T09:44:46.065Z,99466.66
2024-01-11T09:47:21.271Z,99467.52
2024-01-11T09:49:57.164Z,99457.23
2024-01-11T09:52:34.346Z,99457.13
2024-01-11T09:55:10.250Z,99452.52
2024-01-11T09:57:47.938Z,99444.98
2024-01-11T10:00:27.005Z,99435.38
2024-01-11T10:03:00.639Z,99428.58
2024-01-11T10:05:35.572Z,99423.06
2024-01-11T10:08:11.062Z,99418.48
2024-01-11T10:10:44.741Z,99418.95
2024-01-11T10:13:18.763Z,99420.21
2024-01-11T10:15:52.213Z,99415.41
2024-01-11T10:18:25.730Z,99412.55
2024-01-11T10:21:00.859Z,99411.41
2024-01-11T10:23:37.144Z,99409.59
2024-01-11T10:26:10.757Z,99404.41
2024-01-11T10:28:46.461Z,99404.30
2024-01-11T10:31:22.332Z,99397.52
2024-01-11T10:33:55.821Z,99395.35
2024-01-11T10:36:32.569Z,99396.61
2024-01-11T10:39:08.842Z,99405.95
2024-01-11T10:41:49.078Z,99403.00
2024-01-11T10:44:24.847Z,99399.51
2024-01-11T10:47:00.427Z,99394.10
2024-01-11T10:49:35.000Z,99393.50
2024-01-11T10:52:14.102Z,99385.08
2024-01-11T10:54:47.361Z,99374.26
2024-01-11T10:57:22.064Z,99372.88
2024-01-11T10:59:56.970Z,99367.31
2024-01-11T11:02:31.542Z,99382.95
2024-01-11T11:05:06.858Z,99391.16
2024-01-11T11:07:41.586Z,99387.77
2024-01-11T11:10:16.498Z,99383.70
2024-01-11T11:12:50.916Z,99385.11
2024-01-11T11:15:25.781Z,99376.48
2024-01-11T11:17:59.849Z,99372.45
2024-01-11T11:20:33.741Z,99368.72
2024-01-11T11:23:11.967Z,99361.81
2024-01-11T11:25:47.086Z,99352.36
2024-01-11T11:28:21.206Z,99357.20
2024-01-11T11:30:58.851Z,99354.76
2024-01-11T11:33:33.218Z,99358.28
2024-01-11T11:36:08.656Z,99357.66
2024-01-11T11:38:42.662Z,99357.20
2024-01-11T11:41:18.971Z,99350.37
2024-01-11T11:43:53.468Z,99342.31
2024-01-11T11:46:27.486Z,99339.16
2024-01-11T11:49:01.377Z,99333.86
2024-01-11T11:51:37.084Z,99322.76
2024-01-11T11:54:12.722Z,99318.55
2024-01-11T11:56:46.500Z,99315.15
2024-01-11T11:59:20.080Z,99312.56
2024-01-11T12:01:54.632Z,99309.55
2024-01-11T12:04:28.008Z,99307.65
2024-01-11T12:07:01.551Z,99299.84
2024-01-11T12:09:35.413Z,99292.88
2024-01-11T12:12:15.656Z,99296.64
2024-01-11T12:14:50.708Z,99294.70
2024-01-11T12:17:24.310Z,99294.52
2024-01-11T12:19:57.968Z,99280.52
2024-01-11T12:22:31.408Z,99280.02
2024-01-11T12:25:05.152Z,99280.73
2024-01-11T12:27:38.537Z,99278.48
2024-01-11T12:30:18.101Z,99281.34
2024-01-11T12:32:52.037Z,99285.38
2024-01-11T12:35:25.659Z,99288.45
2024-01-11T12:38:01.323Z,99285.91
2024-01-11T12:40:36.491Z,99284.05
2024-01-11T12:43:10.597Z,99285.55
2024-01-11T12:45:44.162Z,99281.57
2024-01-11T12:48:18.827Z,99274.72
2024-01-11T12:50:57.569Z,99273.63
2024-01-11T12:53:37.598Z,99263.75
2024-01-11T12:56:12.884Z,99253.81
2024-01-11T12:58:47.739Z,99249.10
2024-01-11T13:01:21.696Z,99247.12
2024-01-11T13:03:55.122Z,99242.74
2024-01-11T13:06:28.764Z,99237.55
2024-01-11T13:09:03.084Z,99236.00
2024-01-11T13:11:36.542Z,99226.05
2024-01-11T13:14:15.700Z,99223.02
2024-01-11T13:16:49.846Z,99222.70
2024-01-11T13:19:27.291Z,99213.08
2024-01-11T13:22:01.412Z,99211.20
2024-01-11T13:24:35.887Z,99210.73
2024-01-11T13:27:09.686Z,99211.56
2024-01-11T13:29:43.259Z,99212.43
2024-01-11T13:32:16.961Z,99217.60
2024-01-11T13:34:51.036Z,99225.39
2024-01-11T13:37:24.440Z,99228.60
2024-01-11T13:40:00.797Z,99222.32
2024-01-11T13:42:34.587Z,99221.67
2024-01-11T13:45:12.290Z,99231.96
2024-01-11T13:47:45.727Z,99239.09
2024-01-11T13:50:21.715Z,99233.23
2024-01-11T13:52:55.991Z,99228.71
2024-01-11T13:55:30.817Z,99226.09
2024-01-11T13:58:04.468Z,99228.00
2024-01-11T14:00:38.453Z,99228.16
2024-01-11T14:03:12.246Z,99222.31
2024-01-11T14:05:45.875Z,99221.71
2024-01-11T14:08:19.589Z,99225.46
2024-01-11T14:10:53.145Z,99228.60
2024-01-11T14:13:26.590Z,99222.73
2024-01-11T14:16:00.080Z,99231.39
2024-01-11T14:18:33.739Z,99230.31
2024-01-11T14:21:07.569Z,99236.58
2024-01-11T14:23:41.053Z,99238.73
2024-01-11T14:26:14.828Z,99245.23
2024-01-11T14:28:48.339Z,99246.17
2024-01-11T14:31:21.782Z,99251.09
2024-01-11T14:33:55.315Z,99254.10
2024-01-11T14:36:29.201Z,99254.52
2024-01-11T14:39:05.303Z,99246.79
2024-01-11T14:41:39.243Z,99254.89
2024-01-11T14:44:12.861Z,99257.93
2024-01-11T14:46:46.493Z,99258.41
2024-01-11T14:49:19.970Z,99265.91
2024-01-11T14:51:53.774Z,99274.73
2024-01-11T14:54:28.678Z,99277.91
2024-01-11T14:57:02.162Z,99287.17
2024-01-11T14:59:35.601Z,99288.03
2024-01-11T15:02:10.419Z,99290.52
2024-01-11T15:04:44.127Z,99288.76
2024-01-11T15:07:17.615Z,99283.48
2024-01-11T15:09:50.960Z,99283.75
2024-01-11T15:12:24.457Z,99282.45
2024-01-11T15:14:58.137Z,99275.48
2024-01-11T15:17:31.903Z,99277.06
2024-01-11T15:20:05.915Z,99279.71
2024-01-11T15:22:39.332Z,99280.59
2024-01-11T15:25:13.124Z,99274.83
2024-01-11T15:27:46.606Z,99275.81
2024-01-11T15:30:20.213Z,99274.41
2024-01-11T15:32:54.149Z,99277.32
2024-01-11T15:35:28.117Z,99280.25
2024-01-11T15:38:02.106Z,99286.48
2024-01-11T15:40:35.529Z,99287.11
2024-01-11T15:43:09.451Z,99288.49
2024-01-11T15:45:42.958Z,99291.20
2024-01-11T15:48:16.572Z,99295.77
2024-01-11T15:50:50.685Z,99297.27
2024-01-11T15:53:24.154Z,99295.99
2024-01-11T15:55:57.885Z,99296.63
2024-01-11T15:58:31.258Z,99299.01
2024-01-11T16:01:04.890Z,99303.92
2024-01-11T16:03:38.832Z,99300.73
2024-01-11T16:06:12.744Z,99303.22
2024-01-11T16:08:48.436Z,99304.50
2024-01-11T16:11:22.648Z,99302.73
2024-01-11T16:13:56.125Z,99301.57
2024-01-11T16:16:29.540Z,99305.77
2024-01-11T16:19:03.205Z,99302.68
2024-01-11T16:21:37.174Z,99304.75
2024-01-11T16:24:21.917Z,99310.12
2024-01-11T16:26:55.366Z,99309.17
2024-01-11T16:29:29.075Z,99305.89
2024-01-11T16:32:02.612Z,99303.97
2024-01-11T16:34:38.106Z,99302.92
2024-01-11T16:37:11.662Z,99309.73
2024-01-11T16:39:45.334Z,99306.97
2024-01-11T16:42:19.618Z,99307.90
2024-01-11T16:44:53.065Z,99310.52
2024-01-11T16:47:26.501Z,99310.98
2024-01-11T16:50:00.397Z,99307.38
2024-01-11T16:52:34.536Z,99307.82
2024-01-11T16:55:09.112Z,99307.50
2024-01-11T16:57:43.101Z,99310.76
2024-01-11T17:00:20.428Z,99313.68
2024-01-11T17:02:55.006Z,99316.35
2024-01-11T17:05:29.996Z,99314.52
2024-01-11T17:08:04.475Z,99315.40
2024-01-11T17:10:39.005Z,99311.56
2024-01-11T17:13:12.689Z,99310.23
2024-01-11T17:15:46.391Z,99313.39
2024-01-11T17:18:20.039Z,99311.95
2024-01-11T17:20:54.497Z,99314.20
2024-01-11T17:23:28.117Z,99312.34
2024-01-11T17:26:04.634Z,99320.10
2024-01-11T17:28:38.465Z,99323.09
2024-01-11T17:31:11.954Z,99328.00
2024-01-11T17:33:47.792Z,99333.29
2024-01-11T17:36:21.726Z,99328.58
2024-01-11T17:38:55.837Z,99327.23
2024-01-11T17:41:29.299Z,99324.86
2024-01-11T17:44:03.557Z,99324.24
2024-01-11T17:46:37.915Z,99326.34
2024-01-11T17:49:14.687Z,99327.86
2024-01-11T17:51:48.107Z,99324.21
2024-01-11T17:54:21.546Z,99320.62
2024-01-11T17:56:55.217Z,99325.02
2024-01-11T17:59:29.132Z,99320.38
2024-01-11T18:02:03.651Z,99323.91
2024-01-11T18:04:37.055Z,99324.48
2024-01-11T18:07:12.076Z,99325.18
2024-01-11T18:09:46.201Z,99319.51
2024-01-11T18:12:20.370Z,99318.78
2024-01-11T18:14:53.920Z,99321.30
2024-01-11T18:17:27.714Z,99321.32
2024-01-11T18:20:01.820Z,99320.70
2024-01-11T18:22:35.746Z,99326.23
2024-01-11T18:25:11.278Z,99328.72
2024-01-11T18:27:45.208Z,99331.16
2024-01-11T18:30:19.489Z,99327.75
2024-01-11T18:32:53.016Z,99323.57
2024-01-11T18:35:26.548Z,99322.33
2024-01-11T18:38:00.621Z,99319.53
2024-01-11T18:40:34.199Z,99315.48
2024-01-11T18:43:08.015Z,99312.06
2024-01-11T18:45:41.688Z,99316.11
2024-01-11T18:48:15.342Z,99315.84
2024-01-11T18:50:49.081Z,99319.95
2024-01-11T18:53:23.154Z,99321.48
2024-01-11T18:55:57.914Z,99319.60
2024-01-11T18:58:31.547Z,99313.11
2024-01-11T19:01:09.192Z,99314.64
2024-01-11T19:03:42.948Z,99308.02
2024-01-11T19:06:16.478Z,99310.79
2024-01-11T19:08:50.077Z,99310.17
2024-01-11T19:11:23.740Z,99312.85
2024-01-11T19:13:57.853Z,99309.10
2024-01-11T19:16:31.345Z,99311.48
2024-01-11T19:19:05.508Z,99312.70
2024-01-11T19:21:41.170Z,99315.54
2024-01-11T19:24:14.635Z,99309.45
2024-01-11T19:26:57.972Z,99304.94
2024-01-11T19:29:51.588Z,99303.73
2024-01-11T19:32:29.994Z,99306.09
2024-01-11T19:35:03.583Z,99303.65
2024-01-11T19:37:37.065Z,99306.59
2024-01-11T19:40:12.718Z,99305.46
2024-01-11T19:42:47.614Z,99305.68
2024-01-11T19:45:21.226Z,99305.82
2024-01-11T19:47:54.854Z,99309.63
2024-01-11T19:50:28.554Z,99305.35
2024-01-11T19:53:02.052Z,99303.99
2024-01-11T19:55:38.420Z,99303.93
2024-01-11T19:58:11.848Z,99309.08
2024-01-11T20:00:45.185Z,99313.09
2024-01-11T20:03:18.568Z,99312.13
2024-01-11T20:05:52.213Z,99312.20
2024-01-11T20:08:25.837Z,99314.73
2024-01-11T20:11:00.996Z,99313.13
2024-01-11T20:13:34.638Z,99316.07
2024-01-11T20:16:09.495Z,99324.45
2024-01-11T20:18:44.348Z,99321.98
2024-01-11T20:21:18.132Z,99325.96
2024-01-11T20:23:51.717Z,99329.91
2024-01-11T20:26:27.482Z,99328.68
2024-01-11T20:29:05.130Z,99327.29
2024-01-11T20:31:41.137Z,99330.21
2024-01-11T20:34:15.327Z,99331.11
2024-01-11T20:36:48.744Z,99331.77
2024-01-11T20:39:22.269Z,99329.75
2024-01-11T20:41:58.482Z,99328.23
2024-01-11T20:44:32.116Z,99325.61
2024-01-11T20:47:05.842Z,99319.71
2024-01-11T20:49:39.375Z,99320.67
2024-01-11T20:52:12.914Z,99326.55
2024-01-11T20:54:46.226Z,99333.04
2024-01-11T20:57:19.916Z,99340.13
2024-01-11T20:59:53.280Z,99347.42
2024-01-11T21:02:26.722Z,99347.62
2024-01-11T21:05:00.232Z,99350.10
2024-01-11T21:07:33.723Z,99353.45
2024-01-11T21:10:08.048Z,99359.33
2024-01-11T21:12:41.388Z,99372.61
2024-01-11T21:15:15.093Z,99368.25
2024-01-11T21:17:48.639Z,99370.86
2024-01-11T21:20:22.374Z,99373.06
2024-01-11T21:22:55.799Z,99372.37
2024-01-11T21:25:29.173Z,99377.82
2024-01-11T21:28:03.926Z,99375.91
2024-01-11T21:30:37.340Z,99378.91
2024-01-11T21:33:11.011Z,99375.19
2024-01-11T21:35:45.104Z,99379.65
2024-01-11T21:38:18.603Z,99375.05
2024-01-11T21:40:52.875Z,99380.89
2024-01-11T21:43:26.346Z,99383.27
2024-01-11T21:45:59.702Z,99389.08
2024-01-11T21:48:33.209Z,99384.41
2024-01-11T21:51:07.287Z,99378.86
2024-01-11T21:53:43.098Z,99381.34
2024-01-11T21:56:19.660Z,99380.77
2024-01-11T21:58:53.101Z,99385.84
2024-01-11T22:01:28.246Z,99383.33
2024-01-11T22:04:01.748Z,99383.99
2024-01-11T22:06:35.250Z,99391.67
2024-01-11T22:09:09.277Z,99397.67
2024-01-11T22:11:42.760Z,99396.39
2024-01-11T22:14:16.161Z,99399.69
2024-01-11T22:16:49.778Z,99394.45
2024-01-11T22:19:23.549Z,99395.13
2024-01-11T22:21:57.048Z,99395.45
2024-01-11T22:24:30.438Z,99395.08
2024-01-11T22:27:10.981Z,99392.34
2024-01-11T22:29:44.444Z,99393.16
2024-01-11T22:32:18.152Z,99396.61
2024-01-11T22:34:51.684Z,99394.67
2024-01-11T22:37:25.247Z,99395.46
2024-01-11T22:39:58.913Z,99390.70
2024-01-11T22:42:33.649Z,99387.71
2024-01-11T22:45:08.390Z,99387.00
2024-01-11T22:47:42.265Z,99390.95
2024-01-11T22:50:17.314Z,99396.17
2024-01-11T22:52:50.730Z,99393.41
2024-01-11T22:55:26.690Z,99395.17
2024-01-11T22:58:00.257Z,99396.09
2024-01-11T23:00:33.644Z,99396.10
2024-01-11T23:03:07.526Z,99394.37
2024-01-11T23:05:41.539Z,99390.02
2024-01-11T23:08:15.226Z,99388.30
2024-01-11T23:10:48.764Z,99387.77
2024-01-11T23:13:22.266Z,99393.46
2024-01-11T23:15:55.610Z,99390.41
2024-01-11T23:18:29.345Z,99393.58
2024-01-11T23:21:03.053Z,99394.40
2024-01-11T23:23:36.645Z,99393.73
2024-01-11T23:26:10.235Z,99395.27
2024-01-11T23:28:43.733Z,99397.67
2024-01-11T23:31:17.335Z,99403.65
2024-01-11T23:33:50.879Z,99407.98
2024-01-11T23:36:24.520Z,99415.58
2024-01-11T23:38:58.065Z,99407.66
2024-01-11T23:41:31.556Z,99407.40
2024-01-11T23:44:05.266Z,99405.58
2024-01-11T23:46:38.569Z,99407.94
2024-01-11T23:49:12.018Z,99407.42
2024-01-11T23:51:45.614Z,99409.13
2024-01-11T23:54:19.145Z,99416.52
2024-01-11T23:56:52.843Z,99426.17
2024-01-11T23:59:26.358Z,99428.50
